sensor_id;sensor_type;location;lat;lon;timestamp;temperature;humidity
31733;DHT22;18312;51.486;7.144;2022-08-03T00:01:07;20.80;99.90
31733;DHT22;18312;51.486;7.144;2022-08-03T00:03:34;20.80;99.90
31733;DHT22;18312;51.486;7.144;2022-08-03T00:06:01;20.80;99.90
31733;DHT22;18312;51.486;7.144;2022-08-03T00:08:27;20.80;99.90
31733;DHT22;18312;51.486;7.144;2022-08-03T00:10:54;20.70;99.90
31733;DHT22;18312;51.486;7.144;2022-08-03T00:13:21;20.70;99.90
31733;DHT22;18312;51.486;7.144;2022-08-03T00:15:49;20.70;99.90
31733;DHT22;18312;51.486;7.144;2022-08-03T00:18:16;20.60;99.90
31733;DHT22;18312;51.486;7.144;2022-08-03T00:20:43;20.60;99.90
31733;DHT22;18312;51.486;7.144;2022-08-03T00:23:12;20.60;99.90
31733;DHT22;18312;51.486;7.144;2022-08-03T00:25:39;20.50;99.90
31733;DHT22;18312;51.486;7.144;2022-08-03T00:28:08;20.50;99.90
31733;DHT22;18312;51.486;7.144;2022-08-03T00:30:35;20.40;99.90
31733;DHT22;18312;51.486;7.144;2022-08-03T00:33:06;20.30;99.90
31733;DHT22;18312;51.486;7.144;2022-08-03T00:35:34;20.30;99.90
31733;DHT22;18312;51.486;7.144;2022-08-03T00:38:04;20.30;99.90
31733;DHT22;18312;51.486;7.144;2022-08-03T00:40:31;20.20;99.90
31733;DHT22;18312;51.486;7.144;2022-08-03T00:42:59;20.20;99.90
31733;DHT22;18312;51.486;7.144;2022-08-03T00:45:29;20.20;99.90
31733;DHT22;18312;51.486;7.144;2022-08-03T00:47:57;20.10;99.90
31733;DHT22;18312;51.486;7.144;2022-08-03T00:50:28;20.10;99.90
31733;DHT22;18312;51.486;7.144;2022-08-03T00:52:58;20.10;99.90
31733;DHT22;18312;51.486;7.144;2022-08-03T00:55:25;20.10;99.90
31733;DHT22;18312;51.486;7.144;2022-08-03T00:57:52;20.10;99.90
31733;DHT22;18312;51.486;7.144;2022-08-03T01:00:22;20.10;99.90
31733;DHT22;18312;51.486;7.144;2022-08-03T01:02:48;20.10;99.90
31733;DHT22;18312;51.486;7.144;2022-08-03T01:05:16;20.20;99.90
31733;DHT22;18312;51.486;7.144;2022-08-03T01:07:59;20.20;99.90
31733;DHT22;18312;51.486;7.144;2022-08-03T01:10:33;20.10;99.90
31733;DHT22;18312;51.486;7.144;2022-08-03T01:13:05;20.20;99.90
31733;DHT22;18312;51.486;7.144;2022-08-03T01:15:41;20.20;99.90
31733;DHT22;18312;51.486;7.144;2022-08-03T01:18:15;20.10;99.90
31733;DHT22;18312;51.486;7.144;2022-08-03T01:20:44;20.10;99.90
31733;DHT22;18312;51.486;7.144;2022-08-03T01:23:31;20.10;99.90
31733;DHT22;18312;51.486;7.144;2022-08-03T01:26:11;20.00;99.90
31733;DHT22;18312;51.486;7.144;2022-08-03T01:28:52;20.00;99.90
31733;DHT22;18312;51.486;7.144;2022-08-03T01:31:29;20.00;99.90
31733;DHT22;18312;51.486;7.144;2022-08-03T01:34:00;20.00;99.90
31733;DHT22;18312;51.486;7.144;2022-08-03T01:36:33;19.90;99.90
31733;DHT22;18312;51.486;7.144;2022-08-03T01:39:04;19.90;99.90
31733;DHT22;18312;51.486;7.144;2022-08-03T01:41:37;19.90;99.90
31733;DHT22;18312;51.486;7.144;2022-08-03T01:44:08;19.90;99.90
31733;DHT22;18312;51.486;7.144;2022-08-03T01:46:38;19.90;99.90
31733;DHT22;18312;51.486;7.144;2022-08-03T01:49:07;19.90;99.90
31733;DHT22;18312;51.486;7.144;2022-08-03T01:51:36;19.90;99.90
31733;DHT22;18312;51.486;7.144;2022-08-03T01:54:04;19.80;99.90
31733;DHT22;18312;51.486;7.144;2022-08-03T01:56:32;19.80;99.90
31733;DHT22;18312;51.486;7.144;2022-08-03T01:59:01;19.80;99.90
31733;DHT22;18312;51.486;7.144;2022-08-03T02:01:32;19.80;99.90
31733;DHT22;18312;51.486;7.144;2022-08-03T02:04:01;19.70;99.90
31733;DHT22;18312;51.486;7.144;2022-08-03T02:06:30;19.60;99.90
31733;DHT22;18312;51.486;7.144;2022-08-03T02:08:58;19.50;99.90
31733;DHT22;18312;51.486;7.144;2022-08-03T02:11:26;19.20;99.90
31733;DHT22;18312;51.486;7.144;2022-08-03T02:13:53;19.10;99.90
31733;DHT22;18312;51.486;7.144;2022-08-03T02:16:22;19.00;99.90
31733;DHT22;18312;51.486;7.144;2022-08-03T02:18:49;19.00;99.90
31733;DHT22;18312;51.486;7.144;2022-08-03T02:21:22;19.00;99.90
31733;DHT22;18312;51.486;7.144;2022-08-03T02:23:49;18.90;99.90
31733;DHT22;18312;51.486;7.144;2022-08-03T02:26:19;18.90;99.90
31733;DHT22;18312;51.486;7.144;2022-08-03T02:28:50;18.90;99.90
31733;DHT22;18312;51.486;7.144;2022-08-03T02:31:28;18.90;99.90
31733;DHT22;18312;51.486;7.144;2022-08-03T02:34:00;18.90;99.90
31733;DHT22;18312;51.486;7.144;2022-08-03T02:36:30;18.80;99.90
31733;DHT22;18312;51.486;7.144;2022-08-03T02:38:59;18.70;99.90
31733;DHT22;18312;51.486;7.144;2022-08-03T02:41:31;18.60;99.90
31733;DHT22;18312;51.486;7.144;2022-08-03T02:44:02;18.60;99.90
31733;DHT22;18312;51.486;7.144;2022-08-03T02:46:36;18.60;99.90
31733;DHT22;18312;51.486;7.144;2022-08-03T02:49:06;18.50;99.90
31733;DHT22;18312;51.486;7.144;2022-08-03T02:51:35;18.50;99.90
31733;DHT22;18312;51.486;7.144;2022-08-03T02:54:05;18.40;99.90
31733;DHT22;18312;51.486;7.144;2022-08-03T02:56:34;18.40;99.90
31733;DHT22;18312;51.486;7.144;2022-08-03T02:59:02;18.40;99.90
31733;DHT22;18312;51.486;7.144;2022-08-03T03:01:30;18.40;99.90
31733;DHT22;18312;51.486;7.144;2022-08-03T03:03:58;18.30;99.90
31733;DHT22;18312;51.486;7.144;2022-08-03T03:06:25;18.40;99.90
31733;DHT22;18312;51.486;7.144;2022-08-03T03:08:57;18.30;99.90
31733;DHT22;18312;51.486;7.144;2022-08-03T03:11:25;18.30;99.90
31733;DHT22;18312;51.486;7.144;2022-08-03T03:13:52;18.10;99.90
31733;DHT22;18312;51.486;7.144;2022-08-03T03:16:21;18.00;99.90
31733;DHT22;18312;51.486;7.144;2022-08-03T03:18:50;18.00;99.90
31733;DHT22;18312;51.486;7.144;2022-08-03T03:21:18;17.90;99.90
31733;DHT22;18312;51.486;7.144;2022-08-03T03:23:46;17.90;99.90
31733;DHT22;18312;51.486;7.144;2022-08-03T03:26:15;17.80;99.90
31733;DHT22;18312;51.486;7.144;2022-08-03T03:28:43;17.80;99.90
31733;DHT22;18312;51.486;7.144;2022-08-03T03:31:10;17.70;99.90
31733;DHT22;18312;51.486;7.144;2022-08-03T03:33:39;17.70;99.90
31733;DHT22;18312;51.486;7.144;2022-08-03T03:36:06;17.60;99.90
31733;DHT22;18312;51.486;7.144;2022-08-03T03:38:36;17.60;99.90
31733;DHT22;18312;51.486;7.144;2022-08-03T03:41:06;17.60;99.90
31733;DHT22;18312;51.486;7.144;2022-08-03T03:43:34;17.60;99.90
31733;DHT22;18312;51.486;7.144;2022-08-03T03:46:13;17.70;99.90
31733;DHT22;18312;51.486;7.144;2022-08-03T03:48:40;17.70;99.90
31733;DHT22;18312;51.486;7.144;2022-08-03T03:51:07;17.70;99.90
31733;DHT22;18312;51.486;7.144;2022-08-03T03:53:34;17.70;99.90
31733;DHT22;18312;51.486;7.144;2022-08-03T03:56:01;17.60;99.90
31733;DHT22;18312;51.486;7.144;2022-08-03T03:58:31;17.60;99.90
31733;DHT22;18312;51.486;7.144;2022-08-03T04:01:00;17.50;99.90
31733;DHT22;18312;51.486;7.144;2022-08-03T04:03:26;17.50;99.90
31733;DHT22;18312;51.486;7.144;2022-08-03T04:05:53;17.50;99.90
31733;DHT22;18312;51.486;7.144;2022-08-03T04:08:40;17.60;99.90
31733;DHT22;18312;51.486;7.144;2022-08-03T04:11:27;17.50;99.90
31733;DHT22;18312;51.486;7.144;2022-08-03T04:13:58;17.50;99.90
31733;DHT22;18312;51.486;7.144;2022-08-03T04:16:30;17.50;99.90
31733;DHT22;18312;51.486;7.144;2022-08-03T04:19:00;17.60;99.90
31733;DHT22;18312;51.486;7.144;2022-08-03T04:21:27;17.50;99.90
31733;DHT22;18312;51.486;7.144;2022-08-03T04:23:59;17.50;99.90
31733;DHT22;18312;51.486;7.144;2022-08-03T04:26:33;17.50;99.90
31733;DHT22;18312;51.486;7.144;2022-08-03T04:29:04;17.50;99.90
31733;DHT22;18312;51.486;7.144;2022-08-03T04:31:34;17.70;99.90
31733;DHT22;18312;51.486;7.144;2022-08-03T04:34:02;17.90;99.90
31733;DHT22;18312;51.486;7.144;2022-08-03T04:36:34;17.90;99.90
31733;DHT22;18312;51.486;7.144;2022-08-03T04:39:05;18.10;99.90
31733;DHT22;18312;51.486;7.144;2022-08-03T04:41:34;18.00;99.90
31733;DHT22;18312;51.486;7.144;2022-08-03T04:44:07;18.00;99.90
31733;DHT22;18312;51.486;7.144;2022-08-03T04:46:38;18.00;99.90
31733;DHT22;18312;51.486;7.144;2022-08-03T04:49:06;18.20;99.90
31733;DHT22;18312;51.486;7.144;2022-08-03T04:51:33;18.30;99.90
31733;DHT22;18312;51.486;7.144;2022-08-03T04:54:02;18.20;99.90
31733;DHT22;18312;51.486;7.144;2022-08-03T04:56:32;18.30;99.90
31733;DHT22;18312;51.486;7.144;2022-08-03T04:58:59;18.30;99.90
31733;DHT22;18312;51.486;7.144;2022-08-03T05:01:26;18.30;99.90
31733;DHT22;18312;51.486;7.144;2022-08-03T05:03:54;18.30;99.90
31733;DHT22;18312;51.486;7.144;2022-08-03T05:06:21;18.50;99.90
31733;DHT22;18312;51.486;7.144;2022-08-03T05:08:48;18.50;99.90
31733;DHT22;18312;51.486;7.144;2022-08-03T05:11:14;18.60;99.90
31733;DHT22;18312;51.486;7.144;2022-08-03T05:13:41;18.70;99.90
31733;DHT22;18312;51.486;7.144;2022-08-03T05:16:08;18.70;99.90
31733;DHT22;18312;51.486;7.144;2022-08-03T05:18:39;18.80;99.90
31733;DHT22;18312;51.486;7.144;2022-08-03T05:21:07;18.90;99.90
31733;DHT22;18312;51.486;7.144;2022-08-03T05:23:34;19.10;99.90
31733;DHT22;18312;51.486;7.144;2022-08-03T05:26:03;19.20;99.90
31733;DHT22;18312;51.486;7.144;2022-08-03T05:28:33;19.40;99.90
31733;DHT22;18312;51.486;7.144;2022-08-03T05:30:59;19.40;99.90
31733;DHT22;18312;51.486;7.144;2022-08-03T05:33:26;19.50;99.90
31733;DHT22;18312;51.486;7.144;2022-08-03T05:35:55;19.60;99.90
31733;DHT22;18312;51.486;7.144;2022-08-03T05:38:24;19.80;99.90
31733;DHT22;18312;51.486;7.144;2022-08-03T05:40:50;19.90;99.90
31733;DHT22;18312;51.486;7.144;2022-08-03T05:43:20;20.10;99.90
31733;DHT22;18312;51.486;7.144;2022-08-03T05:45:47;20.20;99.90
31733;DHT22;18312;51.486;7.144;2022-08-03T05:48:13;20.40;99.90
31733;DHT22;18312;51.486;7.144;2022-08-03T05:50:40;20.70;99.90
31733;DHT22;18312;51.486;7.144;2022-08-03T05:53:07;20.80;99.90
31733;DHT22;18312;51.486;7.144;2022-08-03T05:55:35;20.90;99.90
31733;DHT22;18312;51.486;7.144;2022-08-03T05:58:02;21.10;99.90
31733;DHT22;18312;51.486;7.144;2022-08-03T06:00:29;21.30;99.90
31733;DHT22;18312;51.486;7.144;2022-08-03T06:02:55;21.60;99.90
31733;DHT22;18312;51.486;7.144;2022-08-03T06:05:22;21.70;99.90
31733;DHT22;18312;51.486;7.144;2022-08-03T06:07:51;21.80;99.90
31733;DHT22;18312;51.486;7.144;2022-08-03T06:10:21;22.00;99.90
31733;DHT22;18312;51.486;7.144;2022-08-03T06:12:49;22.50;99.90
31733;DHT22;18312;51.486;7.144;2022-08-03T06:15:17;23.60;99.90
31733;DHT22;18312;51.486;7.144;2022-08-03T06:17:47;23.80;99.90
31733;DHT22;18312;51.486;7.144;2022-08-03T06:20:16;24.80;99.90
31733;DHT22;18312;51.486;7.144;2022-08-03T06:22:50;25.80;99.30
31733;DHT22;18312;51.486;7.144;2022-08-03T06:25:20;25.20;99.90
31733;DHT22;18312;51.486;7.144;2022-08-03T06:27:51;25.20;99.90
31733;DHT22;18312;51.486;7.144;2022-08-03T06:30:18;25.60;99.90
31733;DHT22;18312;51.486;7.144;2022-08-03T06:32:44;26.00;98.10
31733;DHT22;18312;51.486;7.144;2022-08-03T06:35:11;27.90;94.00
31733;DHT22;18312;51.486;7.144;2022-08-03T06:37:42;29.70;88.50
31733;DHT22;18312;51.486;7.144;2022-08-03T06:40:12;30.90;82.60
31733;DHT22;18312;51.486;7.144;2022-08-03T06:42:40;31.80;75.90
31733;DHT22;18312;51.486;7.144;2022-08-03T06:45:08;29.80;79.00
31733;DHT22;18312;51.486;7.144;2022-08-03T06:47:35;29.00;81.80
31733;DHT22;18312;51.486;7.144;2022-08-03T06:50:06;28.20;84.30
31733;DHT22;18312;51.486;7.144;2022-08-03T06:52:35;27.40;88.50
31733;DHT22;18312;51.486;7.144;2022-08-03T06:55:02;27.80;87.20
31733;DHT22;18312;51.486;7.144;2022-08-03T06:57:29;27.30;89.30
31733;DHT22;18312;51.486;7.144;2022-08-03T06:59:59;27.10;90.50
31733;DHT22;18312;51.486;7.144;2022-08-03T07:02:28;28.10;89.20
31733;DHT22;18312;51.486;7.144;2022-08-03T07:04:56;27.40;90.20
31733;DHT22;18312;51.486;7.144;2022-08-03T07:07:23;26.60;91.50
31733;DHT22;18312;51.486;7.144;2022-08-03T07:09:52;26.10;94.20
31733;DHT22;18312;51.486;7.144;2022-08-03T07:12:22;25.90;98.90
31733;DHT22;18312;51.486;7.144;2022-08-03T07:14:48;25.90;99.90
31733;DHT22;18312;51.486;7.144;2022-08-03T07:17:15;26.10;99.00
31733;DHT22;18312;51.486;7.144;2022-08-03T07:19:45;26.20;97.30
31733;DHT22;18312;51.486;7.144;2022-08-03T07:22:12;26.20;97.50
31733;DHT22;18312;51.486;7.144;2022-08-03T07:24:42;26.40;98.10
31733;DHT22;18312;51.486;7.144;2022-08-03T07:27:09;26.00;97.90
31733;DHT22;18312;51.486;7.144;2022-08-03T07:29:36;26.00;99.10
31733;DHT22;18312;51.486;7.144;2022-08-03T07:32:03;25.80;99.30
31733;DHT22;18312;51.486;7.144;2022-08-03T07:34:33;26.00;98.90
31733;DHT22;18312;51.486;7.144;2022-08-03T07:37:01;26.20;98.30
31733;DHT22;18312;51.486;7.144;2022-08-03T07:39:28;26.00;98.90
31733;DHT22;18312;51.486;7.144;2022-08-03T07:41:57;25.80;99.90
31733;DHT22;18312;51.486;7.144;2022-08-03T07:44:24;25.80;99.90
31733;DHT22;18312;51.486;7.144;2022-08-03T07:46:53;25.80;99.90
31733;DHT22;18312;51.486;7.144;2022-08-03T07:49:20;25.90;99.90
31733;DHT22;18312;51.486;7.144;2022-08-03T07:51:46;26.00;99.90
31733;DHT22;18312;51.486;7.144;2022-08-03T07:54:46;26.10;99.70
31733;DHT22;18312;51.486;7.144;2022-08-03T07:57:13;26.30;99.90
31733;DHT22;18312;51.486;7.144;2022-08-03T07:59:40;26.60;96.90
31733;DHT22;18312;51.486;7.144;2022-08-03T08:02:07;26.70;97.10
31733;DHT22;18312;51.486;7.144;2022-08-03T08:04:34;26.40;97.30
31733;DHT22;18312;51.486;7.144;2022-08-03T08:07:00;26.40;96.80
31733;DHT22;18312;51.486;7.144;2022-08-03T08:09:27;26.50;96.70
31733;DHT22;18312;51.486;7.144;2022-08-03T08:11:59;26.60;97.30
31733;DHT22;18312;51.486;7.144;2022-08-03T08:14:26;26.80;96.50
31733;DHT22;18312;51.486;7.144;2022-08-03T08:16:53;26.80;96.20
31733;DHT22;18312;51.486;7.144;2022-08-03T08:19:20;26.80;95.20
31733;DHT22;18312;51.486;7.144;2022-08-03T08:21:47;26.70;93.20
31733;DHT22;18312;51.486;7.144;2022-08-03T08:24:14;26.70;92.90
31733;DHT22;18312;51.486;7.144;2022-08-03T08:26:41;26.70;92.90
31733;DHT22;18312;51.486;7.144;2022-08-03T08:29:12;26.80;93.30
31733;DHT22;18312;51.486;7.144;2022-08-03T08:31:38;27.00;92.90
31733;DHT22;18312;51.486;7.144;2022-08-03T08:34:05;27.00;93.20
31733;DHT22;18312;51.486;7.144;2022-08-03T08:36:32;27.10;93.00
31733;DHT22;18312;51.486;7.144;2022-08-03T08:38:59;27.20;92.30
31733;DHT22;18312;51.486;7.144;2022-08-03T08:41:28;27.20;92.50
31733;DHT22;18312;51.486;7.144;2022-08-03T08:43:58;27.40;92.60
31733;DHT22;18312;51.486;7.144;2022-08-03T08:46:28;27.70;93.20
31733;DHT22;18312;51.486;7.144;2022-08-03T08:48:58;27.80;92.00
31733;DHT22;18312;51.486;7.144;2022-08-03T08:51:28;27.80;90.90
31733;DHT22;18312;51.486;7.144;2022-08-03T08:53:56;27.80;91.90
31733;DHT22;18312;51.486;7.144;2022-08-03T08:56:27;27.80;90.40
31733;DHT22;18312;51.486;7.144;2022-08-03T08:58:58;27.90;90.20
31733;DHT22;18312;51.486;7.144;2022-08-03T09:01:26;28.10;89.60
31733;DHT22;18312;51.486;7.144;2022-08-03T09:03:53;28.60;88.90
31733;DHT22;18312;51.486;7.144;2022-08-03T09:06:20;28.70;88.90
31733;DHT22;18312;51.486;7.144;2022-08-03T09:08:47;28.70;86.70
31733;DHT22;18312;51.486;7.144;2022-08-03T09:11:22;28.70;88.70
31733;DHT22;18312;51.486;7.144;2022-08-03T09:13:49;28.80;88.60
31733;DHT22;18312;51.486;7.144;2022-08-03T09:16:17;28.90;89.20
31733;DHT22;18312;51.486;7.144;2022-08-03T09:18:49;28.80;86.30
31733;DHT22;18312;51.486;7.144;2022-08-03T09:21:21;28.50;86.40
31733;DHT22;18312;51.486;7.144;2022-08-03T09:23:50;28.50;86.70
31733;DHT22;18312;51.486;7.144;2022-08-03T09:26:21;28.50;85.20
31733;DHT22;18312;51.486;7.144;2022-08-03T09:29:04;28.60;86.40
31733;DHT22;18312;51.486;7.144;2022-08-03T09:31:37;28.80;85.90
31733;DHT22;18312;51.486;7.144;2022-08-03T09:34:07;29.00;85.30
31733;DHT22;18312;51.486;7.144;2022-08-03T09:36:39;28.90;84.40
31733;DHT22;18312;51.486;7.144;2022-08-03T09:39:09;29.30;83.10
31733;DHT22;18312;51.486;7.144;2022-08-03T09:41:39;31.00;79.00
31733;DHT22;18312;51.486;7.144;2022-08-03T09:44:09;30.70;77.90
31733;DHT22;18312;51.486;7.144;2022-08-03T09:46:47;31.40;74.70
31733;DHT22;18312;51.486;7.144;2022-08-03T09:49:16;32.30;72.40
31733;DHT22;18312;51.486;7.144;2022-08-03T09:51:47;32.30;72.00
31733;DHT22;18312;51.486;7.144;2022-08-03T09:54:25;32.10;71.50
31733;DHT22;18312;51.486;7.144;2022-08-03T09:56:52;32.00;72.40
31733;DHT22;18312;51.486;7.144;2022-08-03T09:59:23;32.20;72.00
31733;DHT22;18312;51.486;7.144;2022-08-03T10:01:50;31.90;72.40
31733;DHT22;18312;51.486;7.144;2022-08-03T10:04:18;31.50;72.80
31733;DHT22;18312;51.486;7.144;2022-08-03T10:07:01;31.40;74.30
31733;DHT22;18312;51.486;7.144;2022-08-03T10:09:27;31.50;73.20
31733;DHT22;18312;51.486;7.144;2022-08-03T10:11:54;31.40;71.70
31733;DHT22;18312;51.486;7.144;2022-08-03T10:14:22;31.20;74.20
31733;DHT22;18312;51.486;7.144;2022-08-03T10:16:51;31.10;72.20
31733;DHT22;18312;51.486;7.144;2022-08-03T10:19:19;31.30;74.40
31733;DHT22;18312;51.486;7.144;2022-08-03T10:21:48;31.20;73.30
31733;DHT22;18312;51.486;7.144;2022-08-03T10:24:22;31.10;74.10
31733;DHT22;18312;51.486;7.144;2022-08-03T10:26:50;31.40;73.90
31733;DHT22;18312;51.486;7.144;2022-08-03T10:29:20;31.80;74.90
31733;DHT22;18312;51.486;7.144;2022-08-03T10:31:47;31.80;72.50
31733;DHT22;18312;51.486;7.144;2022-08-03T10:34:33;32.20;72.50
31733;DHT22;18312;51.486;7.144;2022-08-03T10:37:04;32.50;70.40
31733;DHT22;18312;51.486;7.144;2022-08-03T10:39:33;32.40;70.50
31733;DHT22;18312;51.486;7.144;2022-08-03T10:42:01;32.10;70.30
31733;DHT22;18312;51.486;7.144;2022-08-03T10:44:32;32.10;67.90
31733;DHT22;18312;51.486;7.144;2022-08-03T10:49:39;31.70;69.90
31733;DHT22;18312;51.486;7.144;2022-08-03T10:52:06;31.70;68.30
31733;DHT22;18312;51.486;7.144;2022-08-03T10:54:40;31.80;68.50
31733;DHT22;18312;51.486;7.144;2022-08-03T10:57:47;31.50;68.80
31733;DHT22;18312;51.486;7.144;2022-08-03T11:00:15;31.90;71.00
31733;DHT22;18312;51.486;7.144;2022-08-03T11:03:07;32.20;68.10
31733;DHT22;18312;51.486;7.144;2022-08-03T11:05:43;32.00;67.80
31733;DHT22;18312;51.486;7.144;2022-08-03T11:08:31;32.20;67.60
31733;DHT22;18312;51.486;7.144;2022-08-03T11:11:02;32.60;67.30
31733;DHT22;18312;51.486;7.144;2022-08-03T11:13:56;32.50;66.90
31733;DHT22;18312;51.486;7.144;2022-08-03T11:16:25;32.40;67.20
31733;DHT22;18312;51.486;7.144;2022-08-03T11:18:56;32.20;67.30
31733;DHT22;18312;51.486;7.144;2022-08-03T11:21:55;32.60;68.30
31733;DHT22;18312;51.486;7.144;2022-08-03T11:24:59;32.50;67.70
31733;DHT22;18312;51.486;7.144;2022-08-03T11:27:28;32.70;66.80
31733;DHT22;18312;51.486;7.144;2022-08-03T11:29:57;32.50;65.70
31733;DHT22;18312;51.486;7.144;2022-08-03T11:35:18;33.30;67.80
31733;DHT22;18312;51.486;7.144;2022-08-03T11:38:11;33.30;66.10
31733;DHT22;18312;51.486;7.144;2022-08-03T11:40:40;33.50;65.60
31733;DHT22;18312;51.486;7.144;2022-08-03T11:43:09;33.70;65.70
31733;DHT22;18312;51.486;7.144;2022-08-03T11:45:36;33.20;64.70
31733;DHT22;18312;51.486;7.144;2022-08-03T11:48:13;33.20;65.80
31733;DHT22;18312;51.486;7.144;2022-08-03T11:50:41;33.60;64.10
31733;DHT22;18312;51.486;7.144;2022-08-03T11:53:15;33.70;63.40
31733;DHT22;18312;51.486;7.144;2022-08-03T11:55:42;33.30;62.70
31733;DHT22;18312;51.486;7.144;2022-08-03T11:58:19;33.30;63.30
31733;DHT22;18312;51.486;7.144;2022-08-03T12:00:46;33.30;64.90
31733;DHT22;18312;51.486;7.144;2022-08-03T12:03:14;33.20;63.80
31733;DHT22;18312;51.486;7.144;2022-08-03T12:05:46;33.90;64.10
31733;DHT22;18312;51.486;7.144;2022-08-03T12:08:16;34.40;63.40
31733;DHT22;18312;51.486;7.144;2022-08-03T12:10:47;34.60;64.10
31733;DHT22;18312;51.486;7.144;2022-08-03T12:13:15;34.50;63.40
31733;DHT22;18312;51.486;7.144;2022-08-03T12:15:42;34.50;63.20
31733;DHT22;18312;51.486;7.144;2022-08-03T12:18:13;34.90;61.90
31733;DHT22;18312;51.486;7.144;2022-08-03T12:20:40;35.40;62.10
31733;DHT22;18312;51.486;7.144;2022-08-03T12:23:08;35.60;60.40
31733;DHT22;18312;51.486;7.144;2022-08-03T12:25:37;35.20;61.80
31733;DHT22;18312;51.486;7.144;2022-08-03T12:28:10;35.10;61.30
31733;DHT22;18312;51.486;7.144;2022-08-03T12:30:39;35.50;60.40
31733;DHT22;18312;51.486;7.144;2022-08-03T12:33:14;34.90;59.60
31733;DHT22;18312;51.486;7.144;2022-08-03T12:35:44;35.20;60.00
31733;DHT22;18312;51.486;7.144;2022-08-03T12:38:11;35.30;60.00
31733;DHT22;18312;51.486;7.144;2022-08-03T12:40:40;35.30;60.50
31733;DHT22;18312;51.486;7.144;2022-08-03T12:43:11;34.70;59.00
31733;DHT22;18312;51.486;7.144;2022-08-03T12:45:40;35.50;60.40
31733;DHT22;18312;51.486;7.144;2022-08-03T12:48:08;35.50;60.00
31733;DHT22;18312;51.486;7.144;2022-08-03T12:50:37;35.60;58.80
31733;DHT22;18312;51.486;7.144;2022-08-03T12:53:06;35.70;59.40
31733;DHT22;18312;51.486;7.144;2022-08-03T12:55:36;35.40;59.40
31733;DHT22;18312;51.486;7.144;2022-08-03T12:58:28;35.40;58.30
31733;DHT22;18312;51.486;7.144;2022-08-03T13:00:57;35.40;58.80
31733;DHT22;18312;51.486;7.144;2022-08-03T13:03:24;35.50;58.50
31733;DHT22;18312;51.486;7.144;2022-08-03T13:05:51;35.90;59.30
31733;DHT22;18312;51.486;7.144;2022-08-03T13:08:23;35.80;58.60
31733;DHT22;18312;51.486;7.144;2022-08-03T13:10:50;36.00;58.30
31733;DHT22;18312;51.486;7.144;2022-08-03T13:13:36;36.30;57.60
31733;DHT22;18312;51.486;7.144;2022-08-03T13:16:09;35.60;57.20
31733;DHT22;18312;51.486;7.144;2022-08-03T13:18:39;35.90;57.60
31733;DHT22;18312;51.486;7.144;2022-08-03T13:21:09;35.60;57.20
31733;DHT22;18312;51.486;7.144;2022-08-03T13:23:35;36.00;57.80
31733;DHT22;18312;51.486;7.144;2022-08-03T13:26:02;35.60;59.00
31733;DHT22;18312;51.486;7.144;2022-08-03T13:28:33;36.00;57.80
31733;DHT22;18312;51.486;7.144;2022-08-03T13:31:00;35.80;58.00
31733;DHT22;18312;51.486;7.144;2022-08-03T13:33:27;35.80;59.00
31733;DHT22;18312;51.486;7.144;2022-08-03T13:35:53;35.90;57.70
31733;DHT22;18312;51.486;7.144;2022-08-03T13:38:20;35.80;58.00
31733;DHT22;18312;51.486;7.144;2022-08-03T13:40:50;35.80;58.40
31733;DHT22;18312;51.486;7.144;2022-08-03T13:43:18;35.80;57.90
31733;DHT22;18312;51.486;7.144;2022-08-03T13:45:46;35.80;56.20
31733;DHT22;18312;51.486;7.144;2022-08-03T13:48:12;35.30;57.00
31733;DHT22;18312;51.486;7.144;2022-08-03T13:50:39;35.90;57.70
31733;DHT22;18312;51.486;7.144;2022-08-03T13:53:06;36.40;56.90
31733;DHT22;18312;51.486;7.144;2022-08-03T13:55:33;36.50;57.10
31733;DHT22;18312;51.486;7.144;2022-08-03T13:57:59;36.10;55.80
31733;DHT22;18312;51.486;7.144;2022-08-03T14:00:28;35.80;55.80
31733;DHT22;18312;51.486;7.144;2022-08-03T14:02:57;35.60;56.60
31733;DHT22;18312;51.486;7.144;2022-08-03T14:05:28;35.70;58.20
31733;DHT22;18312;51.486;7.144;2022-08-03T14:08:01;36.10;56.70
31733;DHT22;18312;51.486;7.144;2022-08-03T14:10:29;35.40;57.30
31733;DHT22;18312;51.486;7.144;2022-08-03T14:12:59;35.50;57.30
31733;DHT22;18312;51.486;7.144;2022-08-03T14:15:26;35.80;57.00
31733;DHT22;18312;51.486;7.144;2022-08-03T14:17:55;35.80;56.10
31733;DHT22;18312;51.486;7.144;2022-08-03T14:20:23;35.90;56.50
31733;DHT22;18312;51.486;7.144;2022-08-03T14:22:49;35.00;56.60
31733;DHT22;18312;51.486;7.144;2022-08-03T14:25:16;34.50;57.20
31733;DHT22;18312;51.486;7.144;2022-08-03T14:27:43;34.60;57.50
31733;DHT22;18312;51.486;7.144;2022-08-03T14:30:13;35.10;58.20
31733;DHT22;18312;51.486;7.144;2022-08-03T14:32:43;35.30;57.50
31733;DHT22;18312;51.486;7.144;2022-08-03T14:35:09;35.20;56.90
31733;DHT22;18312;51.486;7.144;2022-08-03T14:37:37;35.30;55.80
31733;DHT22;18312;51.486;7.144;2022-08-03T14:40:05;35.60;56.60
31733;DHT22;18312;51.486;7.144;2022-08-03T14:42:32;35.50;55.80
31733;DHT22;18312;51.486;7.144;2022-08-03T14:44:59;35.30;56.30
31733;DHT22;18312;51.486;7.144;2022-08-03T14:47:26;35.20;56.50
31733;DHT22;18312;51.486;7.144;2022-08-03T14:50:01;34.90;57.10
31733;DHT22;18312;51.486;7.144;2022-08-03T14:52:30;34.70;55.80
31733;DHT22;18312;51.486;7.144;2022-08-03T14:55:00;35.00;56.10
31733;DHT22;18312;51.486;7.144;2022-08-03T14:57:29;35.30;56.20
31733;DHT22;18312;51.486;7.144;2022-08-03T14:59:56;35.10;55.70
31733;DHT22;18312;51.486;7.144;2022-08-03T15:02:23;35.00;54.90
31733;DHT22;18312;51.486;7.144;2022-08-03T15:04:50;35.50;55.50
31733;DHT22;18312;51.486;7.144;2022-08-03T15:07:16;35.10;54.80
31733;DHT22;18312;51.486;7.144;2022-08-03T15:09:43;34.70;55.00
31733;DHT22;18312;51.486;7.144;2022-08-03T15:12:11;34.60;55.50
31733;DHT22;18312;51.486;7.144;2022-08-03T15:14:38;34.80;54.90
31733;DHT22;18312;51.486;7.144;2022-08-03T15:17:05;35.40;54.50
31733;DHT22;18312;51.486;7.144;2022-08-03T15:19:32;36.00;55.30
31733;DHT22;18312;51.486;7.144;2022-08-03T15:21:58;36.80;54.30
31733;DHT22;18312;51.486;7.144;2022-08-03T15:24:25;37.20;53.50
31733;DHT22;18312;51.486;7.144;2022-08-03T15:26:52;37.10;51.60
31733;DHT22;18312;51.486;7.144;2022-08-03T15:29:20;38.50;51.00
31733;DHT22;18312;51.486;7.144;2022-08-03T15:31:47;39.90;50.50
31733;DHT22;18312;51.486;7.144;2022-08-03T15:34:15;40.80;49.50
31733;DHT22;18312;51.486;7.144;2022-08-03T15:36:45;41.60;48.90
31733;DHT22;18312;51.486;7.144;2022-08-03T15:39:12;40.40;49.40
31733;DHT22;18312;51.486;7.144;2022-08-03T15:41:42;39.50;48.60
31733;DHT22;18312;51.486;7.144;2022-08-03T15:44:09;39.60;51.00
31733;DHT22;18312;51.486;7.144;2022-08-03T15:46:45;40.20;49.00
31733;DHT22;18312;51.486;7.144;2022-08-03T15:49:12;41.10;49.00
31733;DHT22;18312;51.486;7.144;2022-08-03T15:51:38;40.10;48.60